首页
METAR-TAF:

METAR-TAF

机场 :

桂林兩江國際機場

桂林, 中华人民共和国

纬度: 25-20N, 经度: 110-18E, 海拔: 166米

当前天气观测

该预报发布于1小时和2分钟前的17:00 UTC
静风
温度 24°C
湿度 94%
气压 1005 hPa
能见度10公里或以上
少量云层高于1600英尺
阴天层高于3300英尺

METAR: ZGKL 231700Z 00000MPS 9999 FEW016 OVC033 24/23 Q1005 NOSIG

时间: 02:02 (18:02 UTC)

预报

该预报发布于2小时和51分钟前的15:11 UTC
预报有效从23日的 18点(UTC)到 24日的 18点(UTC)
风速6节,风向
能見度: 6000
散云层高于3000英尺
多云层高于5000英尺
短暂存在
从 24日的 08点(UTC)到 24日的 12点(UTC)
能見度: 2000
少量云层高于800英尺
散云层高于3000英尺
少量云层高于4000英尺, 积雨云.
多云层高于4000英尺
阵雨

TAF: ZGKL 231511Z 2318/2418 18003MPS 6000 SCT030 BKN050 TX32/2408Z TN22/2321Z TEMPO 2408/2412 2000 SHRA FEW008 SCT030 FEW040CB BKN040

超过4000个机场的气象观测和天气预报(METAR&TAF报告)。

可查询的气象台以黄色和红色小点在地图上表示。

将鼠标移到小点上方,可查看气象台名称。

然后点击查看天气观测和预报。

如需切换地图:点击带黑十字的绿色按钮放大地图;点击带横线的绿色按钮缩小地图;或者点击绿色箭头查看邻近地区的地图。


METAR-TAF: